sensor_id;sensor_type;location;lat;lon;timestamp;temperature;humidity
14531;DHT22;7352;50.866;4.366;2023-03-23T00:00:02;14.30;99.90
14531;DHT22;7352;50.866;4.366;2023-03-23T00:02:32;14.20;99.90
14531;DHT22;7352;50.866;4.366;2023-03-23T00:05:01;14.20;99.90
14531;DHT22;7352;50.866;4.366;2023-03-23T00:07:30;14.20;99.90
14531;DHT22;7352;50.866;4.366;2023-03-23T00:09:58;14.20;99.90
14531;DHT22;7352;50.866;4.366;2023-03-23T00:12:31;14.20;99.90
14531;DHT22;7352;50.866;4.366;2023-03-23T00:15:00;14.20;99.90
14531;DHT22;7352;50.866;4.366;2023-03-23T00:17:28;14.30;99.90
14531;DHT22;7352;50.866;4.366;2023-03-23T00:19:55;14.30;99.90
14531;DHT22;7352;50.866;4.366;2023-03-23T00:22:22;14.20;99.90
14531;DHT22;7352;50.866;4.366;2023-03-23T00:24:50;14.30;99.90
14531;DHT22;7352;50.866;4.366;2023-03-23T00:27:23;14.30;99.90
14531;DHT22;7352;50.866;4.366;2023-03-23T00:29:55;14.20;99.90
14531;DHT22;7352;50.866;4.366;2023-03-23T00:32:36;14.30;99.90
14531;DHT22;7352;50.866;4.366;2023-03-23T00:35:04;14.40;99.90
14531;DHT22;7352;50.866;4.366;2023-03-23T00:37:32;14.30;99.90
14531;DHT22;7352;50.866;4.366;2023-03-23T00:40:01;14.40;99.90
14531;DHT22;7352;50.866;4.366;2023-03-23T00:42:34;14.30;99.90
14531;DHT22;7352;50.866;4.366;2023-03-23T00:45:06;14.30;99.90
14531;DHT22;7352;50.866;4.366;2023-03-23T00:47:36;14.30;99.90
14531;DHT22;7352;50.866;4.366;2023-03-23T00:50:04;14.30;99.90
14531;DHT22;7352;50.866;4.366;2023-03-23T00:52:31;14.40;99.90
14531;DHT22;7352;50.866;4.366;2023-03-23T00:54:58;14.30;99.90
14531;DHT22;7352;50.866;4.366;2023-03-23T00:57:25;14.30;99.90
14531;DHT22;7352;50.866;4.366;2023-03-23T00:59:52;14.20;99.90
14531;DHT22;7352;50.866;4.366;2023-03-23T01:02:21;14.20;99.90
14531;DHT22;7352;50.866;4.366;2023-03-23T01:04:50;14.30;99.90
14531;DHT22;7352;50.866;4.366;2023-03-23T01:07:19;14.40;99.90
14531;DHT22;7352;50.866;4.366;2023-03-23T01:09:46;14.40;99.90
14531;DHT22;7352;50.866;4.366;2023-03-23T01:12:13;14.30;99.90
14531;DHT22;7352;50.866;4.366;2023-03-23T01:14:42;14.40;99.90
14531;DHT22;7352;50.866;4.366;2023-03-23T01:17:09;14.20;99.90
14531;DHT22;7352;50.866;4.366;2023-03-23T01:19:38;14.20;99.90
14531;DHT22;7352;50.866;4.366;2023-03-23T01:22:05;14.10;99.90
14531;DHT22;7352;50.866;4.366;2023-03-23T01:24:33;14.20;99.90
14531;DHT22;7352;50.866;4.366;2023-03-23T01:26:59;14.20;99.90
14531;DHT22;7352;50.866;4.366;2023-03-23T01:29:32;14.20;99.90
14531;DHT22;7352;50.866;4.366;2023-03-23T01:31:59;14.20;99.90
14531;DHT22;7352;50.866;4.366;2023-03-23T01:34:26;14.30;99.90
14531;DHT22;7352;50.866;4.366;2023-03-23T01:36:55;14.30;99.90
14531;DHT22;7352;50.866;4.366;2023-03-23T01:39:22;14.40;99.90
14531;DHT22;7352;50.866;4.366;2023-03-23T01:41:49;14.20;99.90
14531;DHT22;7352;50.866;4.366;2023-03-23T01:47:22;14.20;99.90
14531;DHT22;7352;50.866;4.366;2023-03-23T01:49:52;14.10;99.90
14531;DHT22;7352;50.866;4.366;2023-03-23T01:52:23;14.20;99.90
14531;DHT22;7352;50.866;4.366;2023-03-23T01:54:52;14.20;99.90
14531;DHT22;7352;50.866;4.366;2023-03-23T01:57:21;14.20;99.90
14531;DHT22;7352;50.866;4.366;2023-03-23T01:59:50;14.20;99.90
14531;DHT22;7352;50.866;4.366;2023-03-23T02:02:21;14.20;99.90
14531;DHT22;7352;50.866;4.366;2023-03-23T02:04:48;14.20;99.90
14531;DHT22;7352;50.866;4.366;2023-03-23T02:07:18;14.20;99.90
14531;DHT22;7352;50.866;4.366;2023-03-23T02:09:49;14.30;99.90
14531;DHT22;7352;50.866;4.366;2023-03-23T02:12:16;14.20;99.90
14531;DHT22;7352;50.866;4.366;2023-03-23T02:14:43;14.20;99.90
14531;DHT22;7352;50.866;4.366;2023-03-23T02:17:15;14.20;99.90
14531;DHT22;7352;50.866;4.366;2023-03-23T02:20:01;14.20;99.90
14531;DHT22;7352;50.866;4.366;2023-03-23T02:23:02;14.20;99.90
14531;DHT22;7352;50.866;4.366;2023-03-23T02:25:55;14.20;99.90
14531;DHT22;7352;50.866;4.366;2023-03-23T02:31:44;14.00;99.90
14531;DHT22;7352;50.866;4.366;2023-03-23T02:34:24;14.00;99.90
14531;DHT22;7352;50.866;4.366;2023-03-23T02:36:56;14.00;99.90
14531;DHT22;7352;50.866;4.366;2023-03-23T02:39:30;14.10;99.90
14531;DHT22;7352;50.866;4.366;2023-03-23T02:42:05;14.10;99.90
14531;DHT22;7352;50.866;4.366;2023-03-23T02:44:34;14.00;99.90
14531;DHT22;7352;50.866;4.366;2023-03-23T02:47:04;14.00;99.90
14531;DHT22;7352;50.866;4.366;2023-03-23T02:49:34;14.00;99.90
14531;DHT22;7352;50.866;4.366;2023-03-23T02:52:05;14.10;99.90
14531;DHT22;7352;50.866;4.366;2023-03-23T02:54:34;14.00;99.90
14531;DHT22;7352;50.866;4.366;2023-03-23T02:57:02;14.10;99.90
14531;DHT22;7352;50.866;4.366;2023-03-23T02:59:29;14.10;99.90
14531;DHT22;7352;50.866;4.366;2023-03-23T03:02:11;14.00;99.90
14531;DHT22;7352;50.866;4.366;2023-03-23T03:04:41;13.90;99.90
14531;DHT22;7352;50.866;4.366;2023-03-23T03:07:29;14.00;99.90
14531;DHT22;7352;50.866;4.366;2023-03-23T03:10:04;14.00;99.90
14531;DHT22;7352;50.866;4.366;2023-03-23T03:12:38;14.00;99.90
14531;DHT22;7352;50.866;4.366;2023-03-23T03:15:16;14.10;99.90
14531;DHT22;7352;50.866;4.366;2023-03-23T03:17:47;14.00;99.90
14531;DHT22;7352;50.866;4.366;2023-03-23T03:20:19;14.10;99.90
14531;DHT22;7352;50.866;4.366;2023-03-23T03:22:47;14.30;99.90
14531;DHT22;7352;50.866;4.366;2023-03-23T03:25:15;14.20;99.90
14531;DHT22;7352;50.866;4.366;2023-03-23T03:27:44;14.10;99.90
14531;DHT22;7352;50.866;4.366;2023-03-23T03:30:16;14.10;99.90
14531;DHT22;7352;50.866;4.366;2023-03-23T03:32:46;14.10;99.90
14531;DHT22;7352;50.866;4.366;2023-03-23T03:35:14;14.10;99.90
14531;DHT22;7352;50.866;4.366;2023-03-23T03:37:43;14.20;99.90
14531;DHT22;7352;50.866;4.366;2023-03-23T03:40:13;14.20;99.90
14531;DHT22;7352;50.866;4.366;2023-03-23T03:42:43;14.10;99.90
14531;DHT22;7352;50.866;4.366;2023-03-23T03:45:12;14.10;99.90
14531;DHT22;7352;50.866;4.366;2023-03-23T03:47:39;14.10;99.90
14531;DHT22;7352;50.866;4.366;2023-03-23T03:50:07;14.10;99.90
14531;DHT22;7352;50.866;4.366;2023-03-23T03:52:35;14.10;99.90
14531;DHT22;7352;50.866;4.366;2023-03-23T03:55:04;14.10;99.90
14531;DHT22;7352;50.866;4.366;2023-03-23T03:57:33;14.10;99.90
14531;DHT22;7352;50.866;4.366;2023-03-23T04:00:00;14.10;99.90
14531;DHT22;7352;50.866;4.366;2023-03-23T04:02:31;14.10;99.90
14531;DHT22;7352;50.866;4.366;2023-03-23T04:05:00;14.10;99.90
14531;DHT22;7352;50.866;4.366;2023-03-23T04:07:29;14.00;99.90
14531;DHT22;7352;50.866;4.366;2023-03-23T04:09:56;14.10;99.90
14531;DHT22;7352;50.866;4.366;2023-03-23T04:12:25;14.00;99.90
14531;DHT22;7352;50.866;4.366;2023-03-23T04:14:52;14.00;99.90
14531;DHT22;7352;50.866;4.366;2023-03-23T04:17:19;14.00;99.90
14531;DHT22;7352;50.866;4.366;2023-03-23T04:19:46;14.00;99.90
14531;DHT22;7352;50.866;4.366;2023-03-23T04:22:13;14.00;99.90
14531;DHT22;7352;50.866;4.366;2023-03-23T04:24:42;14.00;99.90
14531;DHT22;7352;50.866;4.366;2023-03-23T04:27:09;14.00;99.90
14531;DHT22;7352;50.866;4.366;2023-03-23T04:29:40;14.00;99.90
14531;DHT22;7352;50.866;4.366;2023-03-23T04:32:07;14.00;99.90
14531;DHT22;7352;50.866;4.366;2023-03-23T04:34:33;14.10;99.90
14531;DHT22;7352;50.866;4.366;2023-03-23T04:37:00;14.00;99.90
14531;DHT22;7352;50.866;4.366;2023-03-23T04:39:27;14.10;99.90
14531;DHT22;7352;50.866;4.366;2023-03-23T04:41:58;14.00;99.90
14531;DHT22;7352;50.866;4.366;2023-03-23T04:44:26;13.90;99.90
14531;DHT22;7352;50.866;4.366;2023-03-23T04:46:55;14.00;99.90
14531;DHT22;7352;50.866;4.366;2023-03-23T04:49:22;14.00;99.90
14531;DHT22;7352;50.866;4.366;2023-03-23T04:51:48;14.00;99.90
14531;DHT22;7352;50.866;4.366;2023-03-23T04:54:16;13.90;99.90
14531;DHT22;7352;50.866;4.366;2023-03-23T04:56:43;13.80;99.90
14531;DHT22;7352;50.866;4.366;2023-03-23T04:59:10;13.80;99.90
14531;DHT22;7352;50.866;4.366;2023-03-23T05:01:39;13.70;99.90
14531;DHT22;7352;50.866;4.366;2023-03-23T05:04:12;13.60;99.90
14531;DHT22;7352;50.866;4.366;2023-03-23T05:06:42;13.80;99.90
14531;DHT22;7352;50.866;4.366;2023-03-23T05:09:11;13.80;99.90
14531;DHT22;7352;50.866;4.366;2023-03-23T05:11:38;13.80;99.90
14531;DHT22;7352;50.866;4.366;2023-03-23T05:14:05;13.70;99.90
14531;DHT22;7352;50.866;4.366;2023-03-23T05:16:32;13.80;99.90
14531;DHT22;7352;50.866;4.366;2023-03-23T05:19:02;13.80;99.90
14531;DHT22;7352;50.866;4.366;2023-03-23T05:21:31;13.80;99.90
14531;DHT22;7352;50.866;4.366;2023-03-23T05:23:58;13.80;99.90
14531;DHT22;7352;50.866;4.366;2023-03-23T05:26:27;13.80;99.90
14531;DHT22;7352;50.866;4.366;2023-03-23T05:28:54;13.70;99.90
14531;DHT22;7352;50.866;4.366;2023-03-23T05:31:21;13.80;99.90
14531;DHT22;7352;50.866;4.366;2023-03-23T05:33:48;13.70;99.90
14531;DHT22;7352;50.866;4.366;2023-03-23T05:36:15;13.80;99.90
14531;DHT22;7352;50.866;4.366;2023-03-23T05:38:45;13.90;99.90
14531;DHT22;7352;50.866;4.366;2023-03-23T05:41:13;13.90;99.90
14531;DHT22;7352;50.866;4.366;2023-03-23T05:43:40;13.90;99.90
14531;DHT22;7352;50.866;4.366;2023-03-23T05:46:07;13.90;99.90
14531;DHT22;7352;50.866;4.366;2023-03-23T05:48:34;13.90;99.90
14531;DHT22;7352;50.866;4.366;2023-03-23T05:51:02;13.90;99.90
14531;DHT22;7352;50.866;4.366;2023-03-23T05:53:29;13.80;99.90
14531;DHT22;7352;50.866;4.366;2023-03-23T05:55:59;13.80;99.90
14531;DHT22;7352;50.866;4.366;2023-03-23T05:58:27;13.90;99.90
14531;DHT22;7352;50.866;4.366;2023-03-23T06:00:54;13.80;99.90
14531;DHT22;7352;50.866;4.366;2023-03-23T06:03:21;13.80;99.90
14531;DHT22;7352;50.866;4.366;2023-03-23T06:05:48;13.80;99.90
14531;DHT22;7352;50.866;4.366;2023-03-23T06:08:15;13.90;99.90
14531;DHT22;7352;50.866;4.366;2023-03-23T06:10:43;13.90;99.90
14531;DHT22;7352;50.866;4.366;2023-03-23T06:13:11;13.80;99.90
14531;DHT22;7352;50.866;4.366;2023-03-23T06:15:38;13.80;99.90
14531;DHT22;7352;50.866;4.366;2023-03-23T06:18:05;13.90;99.90
14531;DHT22;7352;50.866;4.366;2023-03-23T06:20:32;13.90;99.90
14531;DHT22;7352;50.866;4.366;2023-03-23T06:23:00;13.90;99.90
14531;DHT22;7352;50.866;4.366;2023-03-23T06:25:28;13.90;99.90
14531;DHT22;7352;50.866;4.366;2023-03-23T06:27:55;14.00;99.90
14531;DHT22;7352;50.866;4.366;2023-03-23T06:30:24;13.90;99.90
14531;DHT22;7352;50.866;4.366;2023-03-23T06:32:53;14.00;99.90
14531;DHT22;7352;50.866;4.366;2023-03-23T06:35:22;14.00;99.90
14531;DHT22;7352;50.866;4.366;2023-03-23T06:37:49;13.90;99.90
14531;DHT22;7352;50.866;4.366;2023-03-23T06:40:17;13.90;99.90
14531;DHT22;7352;50.866;4.366;2023-03-23T06:42:45;14.00;99.90
14531;DHT22;7352;50.866;4.366;2023-03-23T06:45:12;14.00;99.90
14531;DHT22;7352;50.866;4.366;2023-03-23T06:47:40;14.00;99.90
14531;DHT22;7352;50.866;4.366;2023-03-23T06:50:08;14.00;99.90
14531;DHT22;7352;50.866;4.366;2023-03-23T06:52:35;14.00;99.90
14531;DHT22;7352;50.866;4.366;2023-03-23T06:55:02;14.00;99.90
14531;DHT22;7352;50.866;4.366;2023-03-23T06:57:29;14.00;99.90
14531;DHT22;7352;50.866;4.366;2023-03-23T06:59:56;14.00;99.90
14531;DHT22;7352;50.866;4.366;2023-03-23T07:02:25;13.90;99.90
14531;DHT22;7352;50.866;4.366;2023-03-23T07:04:54;13.60;99.90
14531;DHT22;7352;50.866;4.366;2023-03-23T07:07:22;13.20;99.90
14531;DHT22;7352;50.866;4.366;2023-03-23T07:09:48;12.50;99.90
14531;DHT22;7352;50.866;4.366;2023-03-23T07:12:16;12.30;99.90
14531;DHT22;7352;50.866;4.366;2023-03-23T07:14:43;12.10;99.90
14531;DHT22;7352;50.866;4.366;2023-03-23T07:17:10;11.90;99.90
14531;DHT22;7352;50.866;4.366;2023-03-23T07:19:37;11.80;99.90
14531;DHT22;7352;50.866;4.366;2023-03-23T07:22:07;11.60;99.90
14531;DHT22;7352;50.866;4.366;2023-03-23T07:24:34;11.60;99.90
14531;DHT22;7352;50.866;4.366;2023-03-23T07:27:02;11.50;99.90
14531;DHT22;7352;50.866;4.366;2023-03-23T07:29:29;11.50;99.90
14531;DHT22;7352;50.866;4.366;2023-03-23T07:31:56;11.40;99.90
14531;DHT22;7352;50.866;4.366;2023-03-23T07:34:23;11.50;99.90
14531;DHT22;7352;50.866;4.366;2023-03-23T07:36:50;11.40;99.90
14531;DHT22;7352;50.866;4.366;2023-03-23T07:39:19;11.70;99.90
14531;DHT22;7352;50.866;4.366;2023-03-23T07:41:45;11.80;99.90
14531;DHT22;7352;50.866;4.366;2023-03-23T07:44:12;11.90;99.90
14531;DHT22;7352;50.866;4.366;2023-03-23T07:46:40;12.00;99.90
14531;DHT22;7352;50.866;4.366;2023-03-23T07:49:10;12.20;99.90
14531;DHT22;7352;50.866;4.366;2023-03-23T07:51:38;12.20;99.90
14531;DHT22;7352;50.866;4.366;2023-03-23T07:54:05;12.40;99.90
14531;DHT22;7352;50.866;4.366;2023-03-23T07:56:37;12.40;99.90
14531;DHT22;7352;50.866;4.366;2023-03-23T07:59:05;12.40;99.90
14531;DHT22;7352;50.866;4.366;2023-03-23T08:01:33;12.40;99.90
14531;DHT22;7352;50.866;4.366;2023-03-23T08:04:01;12.60;99.90
14531;DHT22;7352;50.866;4.366;2023-03-23T08:06:27;12.80;99.90
14531;DHT22;7352;50.866;4.366;2023-03-23T08:08:54;12.90;99.90
14531;DHT22;7352;50.866;4.366;2023-03-23T08:11:22;13.00;99.90
14531;DHT22;7352;50.866;4.366;2023-03-23T08:13:51;13.10;99.90
14531;DHT22;7352;50.866;4.366;2023-03-23T08:16:18;13.00;99.90
14531;DHT22;7352;50.866;4.366;2023-03-23T08:18:46;13.00;99.90
14531;DHT22;7352;50.866;4.366;2023-03-23T08:21:13;13.10;99.90
14531;DHT22;7352;50.866;4.366;2023-03-23T08:23:39;13.10;99.90
14531;DHT22;7352;50.866;4.366;2023-03-23T08:26:08;12.90;99.90
14531;DHT22;7352;50.866;4.366;2023-03-23T08:28:35;12.70;99.90
14531;DHT22;7352;50.866;4.366;2023-03-23T08:31:08;12.60;99.90
14531;DHT22;7352;50.866;4.366;2023-03-23T08:33:35;12.40;99.90
14531;DHT22;7352;50.866;4.366;2023-03-23T08:36:03;12.30;99.90
14531;DHT22;7352;50.866;4.366;2023-03-23T08:38:30;12.30;99.90
14531;DHT22;7352;50.866;4.366;2023-03-23T08:40:58;12.40;99.90
14531;DHT22;7352;50.866;4.366;2023-03-23T08:43:25;12.50;99.90
14531;DHT22;7352;50.866;4.366;2023-03-23T08:45:52;12.50;99.90
14531;DHT22;7352;50.866;4.366;2023-03-23T08:48:21;12.40;99.90
14531;DHT22;7352;50.866;4.366;2023-03-23T08:50:48;12.40;99.90
14531;DHT22;7352;50.866;4.366;2023-03-23T08:53:17;12.50;99.90
14531;DHT22;7352;50.866;4.366;2023-03-23T08:55:47;12.50;99.90
14531;DHT22;7352;50.866;4.366;2023-03-23T08:58:14;12.60;99.90
14531;DHT22;7352;50.866;4.366;2023-03-23T09:00:41;12.70;99.90
14531;DHT22;7352;50.866;4.366;2023-03-23T09:03:08;12.80;99.90
14531;DHT22;7352;50.866;4.366;2023-03-23T09:05:36;12.90;99.90
14531;DHT22;7352;50.866;4.366;2023-03-23T09:08:08;13.00;99.90
14531;DHT22;7352;50.866;4.366;2023-03-23T09:10:35;13.00;99.90
14531;DHT22;7352;50.866;4.366;2023-03-23T09:13:02;13.00;99.90
14531;DHT22;7352;50.866;4.366;2023-03-23T09:15:29;13.00;99.90
14531;DHT22;7352;50.866;4.366;2023-03-23T09:17:56;13.00;99.90
14531;DHT22;7352;50.866;4.366;2023-03-23T09:20:25;13.00;99.90
14531;DHT22;7352;50.866;4.366;2023-03-23T09:22:56;13.00;99.90
14531;DHT22;7352;50.866;4.366;2023-03-23T09:25:26;12.90;99.90
14531;DHT22;7352;50.866;4.366;2023-03-23T09:27:54;12.90;99.90
14531;DHT22;7352;50.866;4.366;2023-03-23T09:30:23;13.00;99.90
14531;DHT22;7352;50.866;4.366;2023-03-23T09:32:52;12.90;99.90
14531;DHT22;7352;50.866;4.366;2023-03-23T09:35:20;12.80;99.90
14531;DHT22;7352;50.866;4.366;2023-03-23T09:37:49;12.80;99.90
14531;DHT22;7352;50.866;4.366;2023-03-23T09:40:20;12.70;99.90
14531;DHT22;7352;50.866;4.366;2023-03-23T09:43:12;12.60;99.90
14531;DHT22;7352;50.866;4.366;2023-03-23T09:45:46;12.50;99.90
14531;DHT22;7352;50.866;4.366;2023-03-23T09:48:31;12.60;99.90
14531;DHT22;7352;50.866;4.366;2023-03-23T09:51:03;12.70;99.90
14531;DHT22;7352;50.866;4.366;2023-03-23T09:53:36;12.70;99.90
14531;DHT22;7352;50.866;4.366;2023-03-23T09:56:10;12.70;99.90
14531;DHT22;7352;50.866;4.366;2023-03-23T09:58:45;12.90;99.90
14531;DHT22;7352;50.866;4.366;2023-03-23T10:01:17;12.90;99.90
14531;DHT22;7352;50.866;4.366;2023-03-23T10:03:45;13.00;99.90
14531;DHT22;7352;50.866;4.366;2023-03-23T10:06:15;13.30;99.90
14531;DHT22;7352;50.866;4.366;2023-03-23T10:08:45;13.40;99.90
14531;DHT22;7352;50.866;4.366;2023-03-23T10:11:22;13.60;99.90
14531;DHT22;7352;50.866;4.366;2023-03-23T10:14:11;13.70;99.90
14531;DHT22;7352;50.866;4.366;2023-03-23T10:16:45;14.00;99.90
14531;DHT22;7352;50.866;4.366;2023-03-23T10:19:20;14.10;99.90
14531;DHT22;7352;50.866;4.366;2023-03-23T10:21:52;14.20;99.90
14531;DHT22;7352;50.866;4.366;2023-03-23T10:24:26;14.30;99.90
14531;DHT22;7352;50.866;4.366;2023-03-23T10:27:02;14.40;99.90
14531;DHT22;7352;50.866;4.366;2023-03-23T10:29:34;14.40;99.90
14531;DHT22;7352;50.866;4.366;2023-03-23T10:32:08;14.50;99.90
14531;DHT22;7352;50.866;4.366;2023-03-23T10:34:42;14.50;99.90
14531;DHT22;7352;50.866;4.366;2023-03-23T10:37:13;14.50;99.90
14531;DHT22;7352;50.866;4.366;2023-03-23T10:39:47;14.60;99.90
14531;DHT22;7352;50.866;4.366;2023-03-23T10:42:24;14.70;99.90
14531;DHT22;7352;50.866;4.366;2023-03-23T10:44:53;14.70;99.90
14531;DHT22;7352;50.866;4.366;2023-03-23T10:47:22;14.70;99.90
14531;DHT22;7352;50.866;4.366;2023-03-23T10:49:51;14.80;99.90
14531;DHT22;7352;50.866;4.366;2023-03-23T10:52:30;15.00;99.90
14531;DHT22;7352;50.866;4.366;2023-03-23T10:55:03;15.20;99.90
14531;DHT22;7352;50.866;4.366;2023-03-23T10:57:33;15.20;99.90
14531;DHT22;7352;50.866;4.366;2023-03-23T11:00:03;15.20;99.90
14531;DHT22;7352;50.866;4.366;2023-03-23T11:02:35;15.20;99.90
14531;DHT22;7352;50.866;4.366;2023-03-23T11:05:06;15.20;99.90
14531;DHT22;7352;50.866;4.366;2023-03-23T11:07:35;15.20;99.90
14531;DHT22;7352;50.866;4.366;2023-03-23T11:10:15;15.30;99.90
14531;DHT22;7352;50.866;4.366;2023-03-23T11:12:45;15.20;99.90
14531;DHT22;7352;50.866;4.366;2023-03-23T11:15:35;15.00;99.90
14531;DHT22;7352;50.866;4.366;2023-03-23T11:18:04;14.80;99.90
14531;DHT22;7352;50.866;4.366;2023-03-23T11:20:36;14.80;99.90
14531;DHT22;7352;50.866;4.366;2023-03-23T11:23:20;14.90;99.90
14531;DHT22;7352;50.866;4.366;2023-03-23T11:25:54;14.90;99.90
14531;DHT22;7352;50.866;4.366;2023-03-23T11:28:28;15.00;99.90
14531;DHT22;7352;50.866;4.366;2023-03-23T11:30:59;15.10;99.90
14531;DHT22;7352;50.866;4.366;2023-03-23T11:33:30;15.30;99.90
14531;DHT22;7352;50.866;4.366;2023-03-23T11:35:57;15.30;99.90
14531;DHT22;7352;50.866;4.366;2023-03-23T11:38:28;15.30;99.90
14531;DHT22;7352;50.866;4.366;2023-03-23T11:40:55;15.30;99.90
14531;DHT22;7352;50.866;4.366;2023-03-23T11:43:26;15.40;99.90
14531;DHT22;7352;50.866;4.366;2023-03-23T11:46:05;15.60;99.90
14531;DHT22;7352;50.866;4.366;2023-03-23T11:48:42;15.80;99.90
14531;DHT22;7352;50.866;4.366;2023-03-23T11:51:14;15.90;99.90
14531;DHT22;7352;50.866;4.366;2023-03-23T11:53:47;15.90;99.90
14531;DHT22;7352;50.866;4.366;2023-03-23T11:56:23;16.10;99.90
14531;DHT22;7352;50.866;4.366;2023-03-23T11:58:53;16.10;99.90
14531;DHT22;7352;50.866;4.366;2023-03-23T12:01:36;16.10;99.90
14531;DHT22;7352;50.866;4.366;2023-03-23T12:04:45;16.20;99.90
14531;DHT22;7352;50.866;4.366;2023-03-23T12:10:24;16.20;99.90
14531;DHT22;7352;50.866;4.366;2023-03-23T12:13:00;16.10;99.90
14531;DHT22;7352;50.866;4.366;2023-03-23T12:15:38;16.20;99.90
14531;DHT22;7352;50.866;4.366;2023-03-23T12:18:14;16.10;99.90
14531;DHT22;7352;50.866;4.366;2023-03-23T12:20:53;16.10;99.90
14531;DHT22;7352;50.866;4.366;2023-03-23T12:23:24;16.30;99.90
14531;DHT22;7352;50.866;4.366;2023-03-23T12:26:05;16.30;99.90
14531;DHT22;7352;50.866;4.366;2023-03-23T12:31:33;16.30;99.90
14531;DHT22;7352;50.866;4.366;2023-03-23T12:34:09;16.40;99.90
14531;DHT22;7352;50.866;4.366;2023-03-23T12:36:53;16.50;99.90
14531;DHT22;7352;50.866;4.366;2023-03-23T12:39:56;16.50;99.90
14531;DHT22;7352;50.866;4.366;2023-03-23T12:42:32;16.60;99.90
14531;DHT22;7352;50.866;4.366;2023-03-23T12:45:07;16.60;99.90
14531;DHT22;7352;50.866;4.366;2023-03-23T12:47:47;16.50;99.90
14531;DHT22;7352;50.866;4.366;2023-03-23T12:50:21;16.50;99.90
14531;DHT22;7352;50.866;4.366;2023-03-23T12:52:54;16.60;99.90
14531;DHT22;7352;50.866;4.366;2023-03-23T12:55:30;16.60;99.90
14531;DHT22;7352;50.866;4.366;2023-03-23T12:58:02;16.70;99.90
14531;DHT22;7352;50.866;4.366;2023-03-23T13:00:46;16.80;99.90
14531;DHT22;7352;50.866;4.366;2023-03-23T13:03:23;16.90;99.90
14531;DHT22;7352;50.866;4.366;2023-03-23T13:05:57;16.80;99.90
14531;DHT22;7352;50.866;4.366;2023-03-23T13:08:30;16.80;99.90
14531;DHT22;7352;50.866;4.366;2023-03-23T13:11:01;16.90;99.90
14531;DHT22;7352;50.866;4.366;2023-03-23T13:13:43;16.90;99.90
14531;DHT22;7352;50.866;4.366;2023-03-23T13:16:18;16.80;99.90
14531;DHT22;7352;50.866;4.366;2023-03-23T13:18:57;16.70;99.90
14531;DHT22;7352;50.866;4.366;2023-03-23T13:21:30;16.70;99.90
14531;DHT22;7352;50.866;4.366;2023-03-23T13:24:00;16.70;99.90
14531;DHT22;7352;50.866;4.366;2023-03-23T13:26:29;16.70;99.90
14531;DHT22;7352;50.866;4.366;2023-03-23T13:28:58;16.80;99.90
14531;DHT22;7352;50.866;4.366;2023-03-23T13:31:29;16.70;99.90
14531;DHT22;7352;50.866;4.366;2023-03-23T13:34:03;16.70;99.90
14531;DHT22;7352;50.866;4.366;2023-03-23T13:36:35;16.60;99.90
14531;DHT22;7352;50.866;4.366;2023-03-23T13:39:05;16.60;99.90
14531;DHT22;7352;50.866;4.366;2023-03-23T13:41:44;16.80;99.90
14531;DHT22;7352;50.866;4.366;2023-03-23T13:44:19;16.90;99.90
14531;DHT22;7352;50.866;4.366;2023-03-23T13:46:56;17.00;99.90
14531;DHT22;7352;50.866;4.366;2023-03-23T13:49:25;17.00;99.90
14531;DHT22;7352;50.866;4.366;2023-03-23T13:52:15;17.10;99.90
14531;DHT22;7352;50.866;4.366;2023-03-23T13:54:45;17.10;99.90
14531;DHT22;7352;50.866;4.366;2023-03-23T13:57:24;17.00;99.90
14531;DHT22;7352;50.866;4.366;2023-03-23T13:59:57;16.90;99.90
14531;DHT22;7352;50.866;4.366;2023-03-23T14:02:36;16.70;99.90
14531;DHT22;7352;50.866;4.366;2023-03-23T14:05:39;16.60;99.90
14531;DHT22;7352;50.866;4.366;2023-03-23T14:08:13;16.40;99.90
14531;DHT22;7352;50.866;4.366;2023-03-23T14:10:43;16.40;99.90
14531;DHT22;7352;50.866;4.366;2023-03-23T14:13:18;16.40;99.90
14531;DHT22;7352;50.866;4.366;2023-03-23T14:15:56;16.70;99.90
14531;DHT22;7352;50.866;4.366;2023-03-23T14:18:27;16.60;99.90
14531;DHT22;7352;50.866;4.366;2023-03-23T14:20:58;16.70;99.90
14531;DHT22;7352;50.866;4.366;2023-03-23T14:23:32;16.80;99.90
14531;DHT22;7352;50.866;4.366;2023-03-23T14:26:01;17.20;99.90
14531;DHT22;7352;50.866;4.366;2023-03-23T14:28:37;17.20;99.90
14531;DHT22;7352;50.866;4.366;2023-03-23T14:31:07;17.20;99.90
14531;DHT22;7352;50.866;4.366;2023-03-23T14:33:40;17.10;99.90
14531;DHT22;7352;50.866;4.366;2023-03-23T14:36:10;17.10;99.90
14531;DHT22;7352;50.866;4.366;2023-03-23T14:38:37;17.10;99.90
14531;DHT22;7352;50.866;4.366;2023-03-23T14:41:05;17.10;99.90
14531;DHT22;7352;50.866;4.366;2023-03-23T14:43:34;17.00;99.90
14531;DHT22;7352;50.866;4.366;2023-03-23T14:46:05;16.90;99.90
14531;DHT22;7352;50.866;4.366;2023-03-23T14:48:35;16.90;99.90
14531;DHT22;7352;50.866;4.366;2023-03-23T14:51:04;16.70;99.90
14531;DHT22;7352;50.866;4.366;2023-03-23T14:53:37;16.60;99.90
14531;DHT22;7352;50.866;4.366;2023-03-23T14:56:10;16.60;99.90
14531;DHT22;7352;50.866;4.366;2023-03-23T14:58:38;16.60;99.90
14531;DHT22;7352;50.866;4.366;2023-03-23T15:01:07;16.70;99.90
14531;DHT22;7352;50.866;4.366;2023-03-23T15:03:37;16.70;99.90
14531;DHT22;7352;50.866;4.366;2023-03-23T15:06:09;16.90;99.90
14531;DHT22;7352;50.866;4.366;2023-03-23T15:08:44;17.10;99.90
14531;DHT22;7352;50.866;4.366;2023-03-23T15:11:22;17.30;99.90
14531;DHT22;7352;50.866;4.366;2023-03-23T15:13:53;17.30;99.90
14531;DHT22;7352;50.866;4.366;2023-03-23T15:16:23;17.20;99.90
14531;DHT22;7352;50.866;4.366;2023-03-23T15:18:53;17.20;99.90
14531;DHT22;7352;50.866;4.366;2023-03-23T15:21:26;17.20;99.90
14531;DHT22;7352;50.866;4.366;2023-03-23T15:23:55;17.40;99.90
14531;DHT22;7352;50.866;4.366;2023-03-23T15:26:31;17.70;99.90
14531;DHT22;7352;50.866;4.366;2023-03-23T15:29:02;17.70;99.90
14531;DHT22;7352;50.866;4.366;2023-03-23T15:31:33;17.60;99.90
14531;DHT22;7352;50.866;4.366;2023-03-23T15:34:04;17.50;99.90
14531;DHT22;7352;50.866;4.366;2023-03-23T15:36:34;17.50;99.90
14531;DHT22;7352;50.866;4.366;2023-03-23T15:39:03;17.40;99.90
14531;DHT22;7352;50.866;4.366;2023-03-23T15:41:32;17.60;99.90
14531;DHT22;7352;50.866;4.366;2023-03-23T15:44:11;17.60;99.90
14531;DHT22;7352;50.866;4.366;2023-03-23T15:46:48;17.50;99.90
14531;DHT22;7352;50.866;4.366;2023-03-23T15:49:15;17.40;99.90
14531;DHT22;7352;50.866;4.366;2023-03-23T15:51:42;17.50;99.90
14531;DHT22;7352;50.866;4.366;2023-03-23T15:54:13;17.30;99.90
14531;DHT22;7352;50.866;4.366;2023-03-23T15:56:40;17.20;99.90
14531;DHT22;7352;50.866;4.366;2023-03-23T15:59:08;17.10;99.90
14531;DHT22;7352;50.866;4.366;2023-03-23T16:01:36;17.10;99.90
14531;DHT22;7352;50.866;4.366;2023-03-23T16:04:07;17.50;99.90
14531;DHT22;7352;50.866;4.366;2023-03-23T16:06:35;17.80;99.90
14531;DHT22;7352;50.866;4.366;2023-03-23T16:09:03;18.20;99.90
14531;DHT22;7352;50.866;4.366;2023-03-23T16:11:32;18.60;99.90
14531;DHT22;7352;50.866;4.366;2023-03-23T16:14:00;18.40;99.90
14531;DHT22;7352;50.866;4.366;2023-03-23T16:16:30;18.10;99.90
14531;DHT22;7352;50.866;4.366;2023-03-23T16:18:58;17.90;99.90